createdAt,value
2023-01-02T00:02:14.447Z,100.00
2023-01-02T00:04:42.950Z,100.00
2023-01-02T00:07:11.389Z,100.00
2023-01-02T00:09:39.868Z,100.00
2023-01-02T00:12:14.480Z,100.00
2023-01-02T00:14:44.558Z,100.00
2023-01-02T00:17:14.330Z,100.00
2023-01-02T00:19:44.278Z,100.00
2023-01-02T00:22:14.112Z,100.00
2023-01-02T00:24:43.892Z,100.00
2023-01-02T00:27:15.496Z,100.00
2023-01-02T00:29:44.877Z,100.00
2023-01-02T00:32:15.946Z,100.00
2023-01-02T00:34:45.648Z,100.00
2023-01-02T00:37:14.113Z,100.00
2023-01-02T00:39:42.549Z,100.00
2023-01-02T00:42:14.159Z,100.00
2023-01-02T00:44:42.473Z,100.00
2023-01-02T00:47:10.801Z,100.00
2023-01-02T00:49:39.275Z,100.00
2023-01-02T00:52:07.650Z,100.00
2023-01-02T00:54:36.154Z,100.00
2023-01-02T00:57:04.560Z,100.00
2023-01-02T00:59:32.914Z,100.00
2023-01-02T01:02:01.422Z,100.00
2023-01-02T01:04:34.273Z,100.00
2023-01-02T01:07:03.603Z,100.00
2023-01-02T01:09:35.660Z,100.00
2023-01-02T01:12:09.638Z,100.00
2023-01-02T01:14:39.343Z,100.00
2023-01-02T01:17:09.032Z,100.00
2023-01-02T01:19:39.061Z,100.00
2023-01-02T01:22:08.668Z,100.00
2023-01-02T01:24:38.607Z,100.00
2023-01-02T01:27:08.311Z,100.00
2023-01-02T01:29:38.086Z,100.00
2023-01-02T01:32:06.593Z,100.00
2023-01-02T01:34:34.921Z,100.00
2023-01-02T01:37:03.401Z,100.00
2023-01-02T01:39:31.890Z,100.00
2023-01-02T01:42:02.379Z,100.00
2023-01-02T01:44:50.450Z,100.00
2023-01-02T01:47:37.614Z,100.00
2023-01-02T01:50:34.899Z,100.00
2023-01-02T01:53:17.133Z,100.00
2023-01-02T01:56:06.042Z,100.00
2023-01-02T01:58:45.424Z,100.00
2023-01-02T02:01:18.164Z,100.00
2023-01-02T02:03:51.672Z,100.00
2023-01-02T02:06:20.771Z,100.00
2023-01-02T02:09:13.724Z,100.00
2023-01-02T02:11:44.901Z,100.00
2023-01-02T02:14:15.201Z,100.00
2023-01-02T02:17:39.684Z,100.00
2023-01-02T02:20:21.581Z,100.00
2023-01-02T02:23:22.009Z,100.00
2023-01-02T02:26:03.566Z,100.00
2023-01-02T02:28:59.821Z,100.00
2023-01-02T02:32:27.076Z,100.00
2023-01-02T02:35:13.674Z,100.00
2023-01-02T02:38:14.002Z,100.00
2023-01-02T02:41:05.073Z,100.00
2023-01-02T02:44:26.673Z,100.00
2023-01-02T02:47:20.566Z,100.00
2023-01-02T02:50:05.429Z,100.00
2023-01-02T02:52:52.592Z,100.00
2023-01-02T02:55:35.261Z,100.00
2023-01-02T02:58:07.958Z,100.00
2023-01-02T03:00:38.034Z,100.00
2023-01-02T03:03:24.009Z,100.00
2023-01-02T03:06:55.882Z,100.00
2023-01-02T03:09:50.146Z,100.00
2023-01-02T03:12:32.658Z,100.00
2023-01-02T03:15:30.245Z,100.00
2023-01-02T03:18:39.491Z,100.00
2023-01-02T03:21:32.617Z,100.00
2023-01-02T03:24:12.314Z,100.00
2023-01-02T03:26:55.133Z,100.00
2023-01-02T03:29:48.365Z,100.00
2023-01-02T03:32:34.038Z,100.00
2023-01-02T03:35:17.797Z,100.00
2023-01-02T03:37:58.181Z,100.00
2023-01-02T03:40:44.593Z,100.00
2023-01-02T03:43:30.633Z,100.00
2023-01-02T03:46:27.032Z,100.00
2023-01-02T03:49:16.251Z,100.00
2023-01-02T03:51:46.438Z,100.00
2023-01-02T03:54:19.806Z,100.00
2023-01-02T03:57:57.242Z,100.00
2023-01-02T04:00:46.927Z,100.00
2023-01-02T04:03:41.009Z,100.00
2023-01-02T04:06:36.835Z,100.00
2023-01-02T04:09:22.391Z,100.00
2023-01-02T04:12:07.518Z,100.00
2023-01-02T04:14:48.764Z,100.00
2023-01-02T04:17:26.702Z,100.00
2023-01-02T04:20:10.574Z,100.00
2023-01-02T04:23:10.572Z,100.00
2023-01-02T04:26:24.818Z,100.00
2023-01-02T04:28:55.327Z,100.00
2023-01-02T04:31:45.557Z,100.00
2023-01-02T04:34:22.402Z,100.00
2023-01-02T04:36:50.116Z,100.00
2023-01-02T04:39:25.565Z,100.00
2023-01-02T04:41:55.944Z,100.00
2023-01-02T04:44:26.010Z,100.00
2023-01-02T04:46:54.464Z,100.00
2023-01-02T04:49:23.010Z,100.00
2023-01-02T04:51:51.270Z,100.00
2023-01-02T04:54:19.703Z,100.00
2023-01-02T04:56:48.101Z,100.00
2023-01-02T04:59:16.545Z,100.00
2023-01-02T05:01:45.123Z,100.00
2023-01-02T05:04:13.439Z,100.00
2023-01-02T05:06:41.825Z,100.00
2023-01-02T05:09:10.461Z,100.00
2023-01-02T05:11:38.723Z,100.00
2023-01-02T05:14:08.125Z,100.00
2023-01-02T05:16:35.655Z,100.00
2023-01-02T05:19:04.099Z,100.00
2023-01-02T05:21:53.599Z,100.00
2023-01-02T05:24:23.613Z,100.00
2023-01-02T05:26:54.744Z,100.00
2023-01-02T05:29:22.216Z,100.00
2023-01-02T05:31:50.433Z,100.00
2023-01-02T05:34:18.941Z,100.00
2023-01-02T05:36:47.366Z,100.00
2023-01-02T05:39:15.687Z,100.00
2023-01-02T05:41:44.222Z,100.00
2023-01-02T05:44:12.588Z,100.00
2023-01-02T05:46:41.066Z,100.00
2023-01-02T05:49:11.657Z,100.00
2023-01-02T05:51:41.760Z,100.00
2023-01-02T05:54:11.784Z,100.00
2023-01-02T05:56:41.915Z,100.00
2023-01-02T05:59:15.727Z,100.00
2023-01-02T06:01:45.816Z,100.00
2023-01-02T06:04:19.649Z,100.00
2023-01-02T06:06:50.081Z,100.00
2023-01-02T06:09:20.110Z,100.00
2023-01-02T06:11:50.146Z,100.00
2023-01-02T06:14:22.297Z,100.00
2023-01-02T06:16:52.326Z,100.00
2023-01-02T06:19:22.364Z,100.00
2023-01-02T06:21:52.440Z,100.00
2023-01-02T06:24:22.449Z,100.00
2023-01-02T06:26:52.506Z,100.00
2023-01-02T06:29:22.826Z,100.00
2023-01-02T06:31:52.857Z,100.00
2023-01-02T06:34:22.928Z,100.00
2023-01-02T06:36:53.011Z,100.00
2023-01-02T06:39:23.203Z,100.00
2023-01-02T06:41:53.385Z,100.00
2023-01-02T06:44:23.381Z,100.00
2023-01-02T06:46:53.397Z,100.00
2023-01-02T06:49:23.407Z,100.00
2023-01-02T06:51:53.498Z,100.00
2023-01-02T06:54:23.558Z,100.00
2023-01-02T06:56:52.020Z,100.00
2023-01-02T06:59:20.552Z,100.00
2023-01-02T07:01:49.080Z,100.00
2023-01-02T07:04:18.165Z,100.00
2023-01-02T07:06:45.829Z,100.00
2023-01-02T07:09:14.598Z,100.00
2023-01-02T07:11:42.766Z,100.00
2023-01-02T07:14:11.171Z,100.00
2023-01-02T07:16:41.287Z,100.00
2023-01-02T07:19:11.407Z,100.00
2023-01-02T07:21:41.471Z,100.00
2023-01-02T07:24:16.098Z,100.00
2023-01-02T07:26:46.114Z,100.00
2023-01-02T07:29:16.132Z,100.00
2023-01-02T07:31:46.157Z,100.00
2023-01-02T07:34:16.254Z,99.43
2023-01-02T07:36:46.327Z,100.00
2023-01-02T07:39:16.316Z,100.00
2023-01-02T07:41:47.084Z,99.75
2023-01-02T07:44:17.167Z,100.00
2023-01-02T07:46:47.200Z,99.62
2023-01-02T07:49:17.223Z,100.00
2023-01-02T07:51:47.243Z,98.93
2023-01-02T07:54:17.339Z,97.73
2023-01-02T07:56:47.373Z,98.02
2023-01-02T07:59:17.478Z,99.43
2023-01-02T08:01:47.600Z,99.09
2023-01-02T08:04:17.932Z,99.70
2023-01-02T08:06:48.027Z,98.77
2023-01-02T08:09:18.168Z,97.55
2023-01-02T08:11:48.220Z,98.06
2023-01-02T08:14:23.233Z,96.38
2023-01-02T08:16:53.763Z,95.83
2023-01-02T08:19:22.180Z,94.94
2023-01-02T08:21:50.621Z,95.86
2023-01-02T08:24:18.975Z,95.38
2023-01-02T08:26:47.578Z,95.06
2023-01-02T08:29:16.108Z,93.98
2023-01-02T08:31:44.524Z,94.13
2023-01-02T08:34:15.166Z,94.91
2023-01-02T08:36:45.795Z,94.27
2023-01-02T08:39:12.875Z,95.06
2023-01-02T08:41:41.965Z,94.51
2023-01-02T08:44:09.786Z,94.56
2023-01-02T08:46:42.628Z,94.52
2023-01-02T08:49:13.228Z,93.76
2023-01-02T08:51:43.033Z,95.02
2023-01-02T08:54:12.959Z,93.79
2023-01-02T08:56:42.726Z,93.52
2023-01-02T08:59:13.257Z,95.19
2023-01-02T09:01:43.428Z,94.86
2023-01-02T09:04:13.959Z,94.77
2023-01-02T09:06:45.208Z,95.14
2023-01-02T09:09:18.242Z,95.79
2023-01-02T09:11:52.907Z,95.76
2023-01-02T09:14:23.523Z,95.21
2023-01-02T09:16:53.448Z,95.50
2023-01-02T09:19:21.411Z,94.83
2023-01-02T09:21:49.710Z,94.00
2023-01-02T09:24:18.495Z,92.85
2023-01-02T09:26:46.615Z,93.86
2023-01-02T09:29:16.272Z,93.29
2023-01-02T09:31:47.106Z,91.19
2023-01-02T09:34:14.714Z,90.69
2023-01-02T09:36:43.105Z,90.06
2023-01-02T09:39:12.681Z,89.03
2023-01-02T09:41:52.447Z,87.27
2023-01-02T09:44:52.471Z,86.33
2023-01-02T09:47:30.583Z,86.25
2023-01-02T09:50:07.974Z,84.87
2023-01-02T09:52:47.831Z,86.97
2023-01-02T09:55:38.264Z,86.30
2023-01-02T09:58:49.188Z,86.55
2023-01-02T10:01:51.763Z,84.00
2023-01-02T10:04:36.545Z,83.26
2023-01-02T10:08:13.977Z,83.69
2023-01-02T10:10:56.977Z,85.30
2023-01-02T10:16:59.430Z,81.90
2023-01-02T10:20:03.578Z,81.97
2023-01-02T10:22:53.376Z,81.54
2023-01-02T10:25:27.458Z,82.30
2023-01-02T10:28:22.266Z,81.08
2023-01-02T10:31:16.300Z,80.34
2023-01-02T10:34:01.476Z,82.09
2023-01-02T10:36:40.883Z,84.47
2023-01-02T10:39:25.307Z,81.66
2023-01-02T10:42:00.041Z,82.13
2023-01-02T10:44:40.711Z,82.25
2023-01-02T10:47:37.751Z,83.12
2023-01-02T10:50:23.437Z,85.35
2023-01-02T10:53:09.831Z,85.32
2023-01-02T10:55:44.955Z,83.67
2023-01-02T10:58:26.943Z,83.93
2023-01-02T11:01:23.600Z,86.14
2023-01-02T11:03:57.709Z,86.19
2023-01-02T11:06:39.405Z,84.60
2023-01-02T11:09:32.879Z,85.44
2023-01-02T11:12:22.622Z,85.02
2023-01-02T11:15:15.051Z,86.87
2023-01-02T11:17:45.329Z,88.33
2023-01-02T11:20:53.652Z,86.56
2023-01-02T11:23:26.669Z,89.15
2023-01-02T11:25:56.899Z,87.90
2023-01-02T11:28:35.138Z,89.20
2023-01-02T11:31:15.149Z,91.36
2023-01-02T11:33:47.026Z,88.93
2023-01-02T11:36:20.204Z,90.22
2023-01-02T11:38:56.906Z,88.67
2023-01-02T11:42:34.872Z,89.37
2023-01-02T11:45:18.765Z,91.70
2023-01-02T11:48:06.657Z,90.70
2023-01-02T11:50:40.080Z,92.00
2023-01-02T11:53:12.815Z,91.16
2023-01-02T11:55:59.507Z,93.75
2023-01-02T11:58:53.019Z,95.58
2023-01-02T12:01:55.057Z,97.16
2023-01-02T12:04:26.013Z,99.27
2023-01-02T12:07:54.429Z,97.88
2023-01-02T12:11:20.259Z,98.96
2023-01-02T12:14:19.891Z,98.90
2023-01-02T12:17:07.897Z,96.83
2023-01-02T12:19:52.822Z,96.04
2023-01-02T12:22:44.506Z,96.76
2023-01-02T12:26:20.517Z,96.67
2023-01-02T12:29:58.298Z,96.51
2023-01-02T12:33:10.416Z,95.69
2023-01-02T12:36:12.510Z,94.30
2023-01-02T12:39:37.024Z,93.83
2023-01-02T12:42:57.459Z,92.25
2023-01-02T12:46:15.040Z,91.59
2023-01-02T12:49:28.108Z,90.93
2023-01-02T12:52:19.780Z,92.02
2023-01-02T12:55:01.335Z,95.83
2023-01-02T12:58:02.505Z,100.00
2023-01-02T13:01:23.444Z,97.99
2023-01-02T13:04:24.667Z,98.88
2023-01-02T13:07:11.215Z,98.79
2023-01-02T13:09:44.432Z,99.43
2023-01-02T13:12:23.625Z,100.00
2023-01-02T13:15:44.715Z,99.76
2023-01-02T13:19:00.198Z,98.37
2023-01-02T13:21:58.467Z,98.22
2023-01-02T13:24:30.816Z,97.44
2023-01-02T13:27:01.283Z,94.38
2023-01-02T13:29:46.038Z,92.25
2023-01-02T13:32:30.713Z,94.08
2023-01-02T13:35:04.764Z,91.64
2023-01-02T13:37:35.435Z,90.41
2023-01-02T13:40:06.563Z,91.75
2023-01-02T13:42:57.272Z,89.23
2023-01-02T13:45:53.874Z,86.92
2023-01-02T13:48:59.637Z,87.24
2023-01-02T13:51:36.221Z,89.25
2023-01-02T13:54:21.082Z,88.30
2023-01-02T13:57:25.220Z,87.17
2023-01-02T14:00:35.105Z,88.09
2023-01-02T14:03:23.793Z,88.96
2023-01-02T14:05:58.433Z,89.41
2023-01-02T14:08:39.601Z,88.50
2023-01-02T14:11:28.629Z,87.58
2023-01-02T14:14:00.909Z,89.33
2023-01-02T14:17:06.383Z,88.84
2023-01-02T14:19:38.297Z,87.42
2023-01-02T14:22:19.229Z,88.58
2023-01-02T14:24:53.478Z,89.21
2023-01-02T14:27:33.110Z,89.26
2023-01-02T14:30:15.234Z,89.10
2023-01-02T14:32:51.209Z,88.71
2023-01-02T14:35:19.535Z,89.11
2023-01-02T14:37:55.357Z,89.86
2023-01-02T14:40:25.220Z,90.07
2023-01-02T14:43:37.990Z,90.27
2023-01-02T14:46:23.230Z,90.13
2023-01-02T14:49:25.476Z,90.37
2023-01-02T14:52:12.612Z,89.48
2023-01-02T14:55:01.127Z,88.49
2023-01-02T14:57:42.117Z,88.74
2023-01-02T15:00:41.961Z,90.45
2023-01-02T15:03:38.243Z,91.00
2023-01-02T15:06:41.798Z,92.09
2023-01-02T15:09:32.396Z,92.27
2023-01-02T15:12:46.897Z,92.78
2023-01-02T15:15:24.731Z,92.70
2023-01-02T15:18:05.958Z,92.28
2023-01-02T15:20:36.451Z,93.06
2023-01-02T15:23:05.375Z,93.13
2023-01-02T15:25:42.100Z,92.43
2023-01-02T15:28:33.670Z,94.95
2023-01-02T15:31:15.928Z,94.67
2023-01-02T15:33:53.911Z,93.33
2023-01-02T15:36:40.236Z,89.77
2023-01-02T15:39:22.455Z,90.65
2023-01-02T15:41:58.709Z,89.23
2023-01-02T15:44:54.464Z,89.53
2023-01-02T15:47:28.130Z,89.51
2023-01-02T15:50:00.257Z,89.05
2023-01-02T15:52:33.727Z,89.26
2023-01-02T15:55:08.969Z,91.61
2023-01-02T15:57:54.593Z,93.68
2023-01-02T16:00:40.285Z,93.00
2023-01-02T16:03:11.844Z,93.97
2023-01-02T16:06:07.337Z,95.44
2023-01-02T16:08:38.255Z,96.32
2023-01-02T16:11:16.374Z,98.09
2023-01-02T16:14:19.844Z,97.83
2023-01-02T16:16:57.816Z,98.91
2023-01-02T16:19:56.239Z,98.72
2023-01-02T16:22:46.363Z,99.73
2023-01-02T16:25:32.235Z,100.00
2023-01-02T16:28:36.294Z,100.00
2023-01-02T16:31:16.764Z,100.00
2023-01-02T16:33:48.087Z,100.00
2023-01-02T16:36:22.593Z,100.00
2023-01-02T16:39:00.150Z,100.00
2023-01-02T16:41:41.074Z,100.00
2023-01-02T16:44:16.230Z,100.00
2023-01-02T16:46:51.713Z,100.00
2023-01-02T16:49:23.498Z,100.00
2023-01-02T16:51:55.193Z,100.00
2023-01-02T16:54:24.338Z,100.00
2023-01-02T16:56:54.407Z,100.00
2023-01-02T16:59:24.006Z,100.00
2023-01-02T17:01:54.133Z,100.00
2023-01-02T17:04:24.235Z,100.00
2023-01-02T17:06:55.221Z,100.00
2023-01-02T17:09:24.636Z,100.00
2023-01-02T17:12:00.920Z,100.00
2023-01-02T17:14:33.976Z,100.00
2023-01-02T17:17:02.147Z,100.00
2023-01-02T17:19:32.290Z,100.00
2023-01-02T17:22:02.384Z,100.00
2023-01-02T17:24:32.404Z,100.00
2023-01-02T17:27:02.881Z,100.00
2023-01-02T17:29:32.413Z,100.00
2023-01-02T17:32:02.502Z,100.00
2023-01-02T17:34:33.216Z,100.00
2023-01-02T17:37:02.252Z,100.00
2023-01-02T17:39:30.759Z,100.00
2023-01-02T17:41:59.124Z,100.00
2023-01-02T17:44:27.514Z,100.00
2023-01-02T17:47:23.375Z,100.00
2023-01-02T17:49:46.083Z,100.00
2023-01-02T17:52:17.122Z,100.00
2023-01-02T17:54:51.189Z,100.00
2023-01-02T17:57:26.628Z,100.00
2023-01-02T17:59:56.755Z,100.00
2023-01-02T18:02:27.024Z,100.00
2023-01-02T18:04:57.166Z,100.00
2023-01-02T18:07:27.628Z,100.00
2023-01-02T18:10:09.188Z,100.00
2023-01-02T18:12:42.809Z,100.00
2023-01-02T18:15:16.414Z,100.00
2023-01-02T18:17:44.554Z,100.00
2023-01-02T18:20:22.970Z,100.00
2023-01-02T18:22:53.668Z,100.00
2023-01-02T18:25:29.983Z,100.00
2023-01-02T18:28:26.671Z,100.00
2023-01-02T18:31:00.618Z,100.00
2023-01-02T18:33:33.399Z,100.00
2023-01-02T18:36:23.583Z,100.00
2023-01-02T18:39:16.364Z,100.00
2023-01-02T18:41:46.449Z,100.00
2023-01-02T18:44:29.014Z,100.00
2023-01-02T18:47:25.080Z,100.00
2023-01-02T18:50:02.483Z,100.00
2023-01-02T18:52:36.443Z,100.00
2023-01-02T18:55:12.396Z,100.00
2023-01-02T18:57:56.095Z,100.00
2023-01-02T19:00:34.586Z,100.00
2023-01-02T19:03:07.761Z,100.00
2023-01-02T19:05:45.531Z,100.00
2023-01-02T19:08:38.073Z,100.00
2023-01-02T19:11:51.972Z,100.00
2023-01-02T19:14:39.343Z,100.00
2023-01-02T19:17:26.769Z,100.00
2023-01-02T19:19:59.758Z,100.00
2023-01-02T19:22:35.949Z,100.00
2023-01-02T19:25:22.177Z,100.00
2023-01-02T19:27:54.209Z,100.00
2023-01-02T19:30:38.562Z,100.00
2023-01-02T19:33:43.457Z,100.00
2023-01-02T19:36:39.842Z,100.00
2023-01-02T19:39:38.058Z,100.00
2023-01-02T19:42:19.956Z,100.00
2023-01-02T19:44:58.614Z,100.00
2023-01-02T19:47:32.563Z,100.00
2023-01-02T19:50:09.225Z,100.00
2023-01-02T19:52:40.354Z,100.00
2023-01-02T19:55:13.866Z,100.00
2023-01-02T19:57:45.840Z,100.00
2023-01-02T20:00:22.226Z,100.00
2023-01-02T20:02:52.835Z,100.00
2023-01-02T20:05:23.283Z,100.00
2023-01-02T20:07:53.985Z,100.00
2023-01-02T20:10:25.811Z,100.00
2023-01-02T20:12:55.860Z,100.00
2023-01-02T20:15:28.139Z,100.00
2023-01-02T20:18:00.517Z,100.00
2023-01-02T20:20:34.300Z,100.00
2023-01-02T20:23:04.391Z,100.00
2023-01-02T20:25:34.514Z,100.00
2023-01-02T20:28:04.606Z,100.00
2023-01-02T20:30:34.635Z,100.00
2023-01-02T20:33:04.658Z,100.00
2023-01-02T20:35:34.786Z,100.00
2023-01-02T20:38:04.870Z,100.00
2023-01-02T20:40:34.876Z,100.00
2023-01-02T20:43:04.958Z,100.00
2023-01-02T20:45:34.984Z,100.00
2023-01-02T20:48:05.688Z,100.00
2023-01-02T20:50:35.764Z,100.00
2023-01-02T20:53:06.988Z,100.00
2023-01-02T20:55:39.213Z,100.00
2023-01-02T20:58:09.395Z,100.00
2023-01-02T21:00:39.499Z,100.00
2023-01-02T21:03:09.663Z,100.00
2023-01-02T21:05:39.878Z,100.00
2023-01-02T21:08:09.936Z,100.00
2023-01-02T21:10:38.350Z,100.00
2023-01-02T21:13:12.748Z,100.00
2023-01-02T21:15:51.396Z,100.00
2023-01-02T21:18:31.280Z,100.00
2023-01-02T21:21:16.467Z,100.00
2023-01-02T21:23:50.143Z,100.00
2023-01-02T21:26:21.886Z,100.00
2023-01-02T21:28:50.840Z,100.00
2023-01-02T21:31:21.789Z,100.00
2023-01-02T21:33:51.621Z,100.00
2023-01-02T21:36:21.400Z,100.00
2023-01-02T21:38:51.699Z,100.00
2023-01-02T21:41:39.953Z,100.00
2023-01-02T21:44:09.624Z,100.00
2023-01-02T21:46:39.515Z,100.00
2023-01-02T21:49:09.563Z,100.00
2023-01-02T21:51:37.891Z,100.00
2023-01-02T21:54:06.253Z,100.00
2023-01-02T21:56:34.726Z,100.00
2023-01-02T21:59:03.120Z,100.00
2023-01-02T22:01:31.740Z,100.00
2023-01-02T22:04:00.166Z,100.00
2023-01-02T22:06:34.024Z,100.00
2023-01-02T22:09:04.410Z,100.00
2023-01-02T22:11:52.860Z,100.00
2023-01-02T22:14:32.434Z,100.00
2023-01-02T22:17:10.785Z,100.00
2023-01-02T22:19:40.244Z,100.00
2023-01-02T22:22:10.466Z,100.00
2023-01-02T22:24:44.449Z,100.00
2023-01-02T22:27:20.725Z,100.00
2023-01-02T22:32:47.396Z,100.00
2023-01-02T22:35:17.887Z,100.00
2023-01-02T22:37:48.166Z,100.00
2023-01-02T22:40:18.253Z,100.00
2023-01-02T22:43:04.485Z,100.00
2023-01-02T22:45:46.456Z,100.00
2023-01-02T22:48:42.318Z,100.00
2023-01-02T22:51:15.133Z,100.00
2023-01-02T22:53:44.260Z,100.00
2023-01-02T22:56:31.636Z,100.00
2023-01-02T22:59:01.673Z,100.00
2023-01-02T23:01:41.584Z,100.00
2023-01-02T23:04:18.570Z,100.00
2023-01-02T23:07:14.147Z,100.00
2023-01-02T23:09:41.954Z,100.00
2023-01-02T23:12:18.791Z,100.00
2023-01-02T23:14:48.997Z,100.00
2023-01-02T23:17:37.693Z,100.00
2023-01-02T23:20:08.706Z,100.00
2023-01-02T23:22:38.717Z,100.00
2023-01-02T23:25:09.550Z,100.00
2023-01-02T23:27:39.620Z,100.00
2023-01-02T23:30:11.661Z,100.00
2023-01-02T23:32:41.710Z,100.00
2023-01-02T23:35:11.969Z,100.00
2023-01-02T23:37:42.122Z,100.00
2023-01-02T23:40:13.271Z,100.00
2023-01-02T23:42:43.275Z,100.00
2023-01-02T23:45:13.261Z,100.00
2023-01-02T23:47:43.254Z,100.00
2023-01-02T23:50:13.297Z,100.00
2023-01-02T23:52:43.355Z,100.00
2023-01-02T23:55:13.484Z,100.00
2023-01-02T23:57:44.383Z,100.00
